Time;durP1;ratioP1;P1;durP2;ratioP2;P2;SDS_P1;SDS_P2;PMS_P1;PMS_P2;Temp;Humidity;BMP_temperature;BMP_pressure;BME280_temperature;BME280_humidity;BME280_pressure;Samples;Min_cycle;Max_cycle;Signal;HPM_P1;HPM_P2
2022/04/06 00:01:43;;;;;;;8.90;6.53;;;7.00;99.90;;;;;;5036931;28;20518;-84
2022/04/06 00:04:09;;;;;;;10.70;6.97;;;7.00;99.90;;;;;;5036858;28;20216;-84
2022/04/06 00:06:35;;;;;;;6.27;5.00;;;7.10;99.90;;;;;;5037975;28;20261;-84
2022/04/06 00:09:02;;;;;;;7.83;6.67;;;7.10;99.90;;;;;;5037123;28;20639;-84
2022/04/06 00:11:27;;;;;;;6.70;5.40;;;7.10;99.90;;;;;;5035665;28;20179;-84
2022/04/06 00:13:53;;;;;;;8.37;5.87;;;7.10;99.90;;;;;;5035819;28;20182;-84
2022/04/06 00:16:19;;;;;;;5.93;4.70;;;7.10;99.90;;;;;;5039967;28;20178;-83
2022/04/06 00:18:45;;;;;;;6.20;5.13;;;;;;;;;;5040253;28;20262;-84
2022/04/06 00:21:12;;;;;;;7.33;5.03;;;7.20;99.90;;;;;;5040852;28;20174;-84
2022/04/06 00:23:38;;;;;;;6.37;4.73;;;7.20;99.90;;;;;;5038638;28;20182;-84
2022/04/06 00:26:04;;;;;;;7.53;5.47;;;;;;;;;;5039285;28;20189;-84
2022/04/06 00:28:29;;;;;;;7.33;5.03;;;7.20;99.90;;;;;;5039834;28;20202;-84
2022/04/06 00:30:55;;;;;;;5.73;4.93;;;;;;;;;;5038782;28;20243;-83
2022/04/06 00:33:21;;;;;;;6.10;5.10;;;7.20;99.90;;;;;;5038648;28;20214;-82
2022/04/06 00:35:47;;;;;;;7.70;5.20;;;7.30;99.90;;;;;;5038557;28;20194;-81
2022/04/06 00:38:13;;;;;;;5.50;3.97;;;7.20;99.90;;;;;;5038629;28;20316;-82
2022/04/06 00:40:39;;;;;;;5.73;4.93;;;7.20;99.90;;;;;;5038743;28;20225;-82
2022/04/06 00:43:12;;;;;;;8.13;4.83;;;7.20;99.90;;;;;;5038032;28;20177;-82
2022/04/06 00:45:39;;;;;;;7.87;4.63;;;7.20;99.90;;;;;;5039897;28;20727;-84
2022/04/06 00:48:06;;;;;;;6.73;5.13;;;7.20;99.90;;;;;;5038994;28;20195;-84
2022/04/06 00:50:32;;;;;;;7.47;4.53;;;;;;;;;;5039468;28;20205;-84
2022/04/06 00:52:58;;;;;;;6.53;5.13;;;7.20;99.90;;;;;;5040435;28;20405;-84
2022/04/06 00:55:28;;;;;;;5.63;4.23;;;7.30;99.90;;;;;;5039299;28;20186;-84
2022/04/06 00:57:55;;;;;;;5.90;4.73;;;7.30;99.90;;;;;;5040979;28;20152;-84
2022/04/06 01:00:21;;;;;;;5.33;4.40;;;7.20;99.90;;;;;;5038808;28;20200;-84
2022/04/06 01:02:47;;;;;;;6.80;5.03;;;7.20;99.90;;;;;;5039905;28;20184;-83
2022/04/06 01:05:13;;;;;;;6.00;5.10;;;7.30;99.90;;;;;;5038655;28;20172;-84
2022/04/06 01:07:39;;;;;;;5.97;4.87;;;;;;;;;;5040541;28;20186;-84
2022/04/06 01:10:05;;;;;;;5.73;4.47;;;7.30;99.90;;;;;;5039326;28;20177;-84
2022/04/06 01:12:35;;;;;;;6.60;4.47;;;7.30;99.90;;;;;;5038888;28;20199;-84
2022/04/06 01:15:01;;;;;;;6.80;4.87;;;7.30;99.90;;;;;;5039003;28;20665;-84
2022/04/06 01:17:33;;;;;;;5.17;4.57;;;7.30;99.90;;;;;;5040611;28;20183;-84
2022/04/06 01:20:00;;;;;;;5.40;4.70;;;7.20;99.90;;;;;;5040973;28;20195;-84
2022/04/06 01:22:26;;;;;;;6.00;4.23;;;7.30;99.90;;;;;;5049059;28;20175;-84
2022/04/06 01:24:52;;;;;;;6.07;4.30;;;7.30;99.90;;;;;;5053428;28;20174;-83
2022/04/06 01:27:18;;;;;;;5.97;4.50;;;7.30;99.90;;;;;;5053473;28;20664;-84
2022/04/06 01:29:44;;;;;;;5.43;4.70;;;7.30;99.90;;;;;;5041244;28;20212;-84
2022/04/06 01:32:13;;;;;;;5.17;4.37;;;7.20;99.90;;;;;;5038368;28;20194;-84
2022/04/06 01:34:40;;;;;;;4.10;3.63;;;7.20;99.90;;;;;;5038562;28;20540;-84
2022/04/06 01:37:07;;;;;;;4.57;3.70;;;7.30;99.90;;;;;;5038477;28;20199;-84
2022/04/06 01:39:34;;;;;;;4.30;3.90;;;7.20;99.90;;;;;;5039116;28;20204;-84
2022/04/06 01:42:00;;;;;;;4.20;3.80;;;7.20;99.90;;;;;;5037507;28;20223;-84
2022/04/06 01:44:25;;;;;;;3.97;3.53;;;7.20;99.90;;;;;;5038499;28;20633;-84
2022/04/06 01:46:51;;;;;;;5.37;4.07;;;7.20;99.90;;;;;;5038957;28;20175;-84
2022/04/06 01:52:13;;;;;;;5.47;4.80;;;7.20;99.90;;;;;;5039404;28;20250;-84
2022/04/06 01:54:47;;;;;;;5.10;4.43;;;7.10;99.90;;;;;;5037019;28;20176;-84
2022/04/06 01:57:14;;;;;;;7.23;4.80;;;7.10;99.90;;;;;;5036757;28;20203;-84
2022/04/06 01:59:40;;;;;;;5.33;4.70;;;7.10;99.90;;;;;;5038509;28;20195;-83
2022/04/06 02:02:06;;;;;;;5.27;4.03;;;7.10;99.90;;;;;;5037132;28;20177;-84
2022/04/06 02:04:32;;;;;;;7.60;4.60;;;7.10;99.90;;;;;;5038511;28;20175;-84
2022/04/06 02:06:58;;;;;;;5.37;4.37;;;7.00;99.90;;;;;;5036815;28;20180;-84
2022/04/06 02:09:24;;;;;;;6.93;4.67;;;7.00;99.90;;;;;;5037184;28;20204;-84
2022/04/06 02:11:50;;;;;;;8.40;5.27;;;7.00;99.90;;;;;;5038282;28;20184;-84
2022/04/06 02:14:16;;;;;;;6.27;4.80;;;7.00;99.90;;;;;;5038331;28;20195;-84
2022/04/06 02:16:42;;;;;;;6.73;5.17;;;7.00;99.90;;;;;;5037097;28;20180;-84
2022/04/06 02:19:08;;;;;;;5.83;4.83;;;7.00;99.90;;;;;;5036630;28;20677;-84
2022/04/06 02:21:35;;;;;;;8.30;5.53;;;7.00;99.90;;;;;;5037145;28;20179;-84
2022/04/06 02:24:01;;;;;;;7.00;5.70;;;7.00;99.90;;;;;;5036946;28;20184;-84
2022/04/06 02:26:27;;;;;;;6.60;5.27;;;7.00;99.90;;;;;;5037262;28;20176;-84
2022/04/06 02:28:56;;;;;;;6.87;5.20;;;7.00;99.90;;;;;;5037233;28;20194;-84
2022/04/06 02:31:23;;;;;;;5.40;4.33;;;7.10;99.90;;;;;;5039064;28;20174;-84
2022/04/06 02:33:49;;;;;;;6.77;4.97;;;7.10;99.90;;;;;;5038308;28;20172;-84
2022/04/06 02:36:15;;;;;;;5.10;4.20;;;7.10;99.90;;;;;;5038518;28;20176;-84
2022/04/06 02:38:40;;;;;;;6.27;4.93;;;7.20;99.90;;;;;;5035942;28;20293;-84
2022/04/06 02:41:07;;;;;;;8.10;4.93;;;7.20;99.90;;;;;;5036474;28;20634;-84
2022/04/06 02:43:34;;;;;;;4.70;4.17;;;7.20;99.90;;;;;;5038215;28;20188;-84
2022/04/06 02:45:59;;;;;;;4.87;4.37;;;7.20;99.90;;;;;;5036600;28;20583;-84
2022/04/06 02:48:25;;;;;;;5.53;4.20;;;7.10;99.90;;;;;;5038104;28;20216;-84
2022/04/06 02:50:51;;;;;;;6.03;4.10;;;7.10;99.90;;;;;;5036488;28;20174;-84
2022/04/06 02:53:16;;;;;;;5.03;3.40;;;7.10;99.90;;;;;;5037014;28;20732;-84
2022/04/06 02:55:42;;;;;;;6.53;4.20;;;7.10;99.90;;;;;;5038088;28;20170;-84
2022/04/06 02:58:08;;;;;;;4.57;3.33;;;;;;;;;;5038302;28;20194;-84
2022/04/06 03:00:34;;;;;;;4.70;3.70;;;7.00;99.90;;;;;;5037227;28;20203;-84
2022/04/06 03:03:00;;;;;;;4.00;3.50;;;7.00;99.90;;;;;;5036383;28;20192;-84
2022/04/06 03:05:26;;;;;;;4.73;3.83;;;7.00;99.90;;;;;;5036802;28;20182;-84
2022/04/06 03:07:52;;;;;;;4.50;3.73;;;7.00;99.90;;;;;;5037303;28;20209;-84
2022/04/06 03:10:17;;;;;;;4.13;3.37;;;6.90;99.90;;;;;;5039908;28;20560;-83
2022/04/06 03:12:43;;;;;;;3.57;3.23;;;6.90;99.90;;;;;;5051880;28;20174;-83
2022/04/06 03:15:09;;;;;;;5.27;3.37;;;6.90;99.90;;;;;;5052512;28;20173;-83
2022/04/06 03:17:36;;;;;;;4.07;3.57;;;6.90;99.90;;;;;;5047411;28;20714;-84
2022/04/06 03:20:05;;;;;;;5.50;3.47;;;6.90;99.90;;;;;;5036250;28;20321;-84
2022/04/06 03:22:31;;;;;;;4.37;3.70;;;6.90;99.90;;;;;;5037484;28;20249;-84
2022/04/06 03:24:57;;;;;;;4.17;3.50;;;6.90;99.90;;;;;;5036336;28;20267;-84
2022/04/06 03:27:23;;;;;;;4.13;3.30;;;;;;;;;;5037339;28;20251;-84
2022/04/06 03:29:49;;;;;;;3.83;3.10;;;7.00;99.90;;;;;;5037372;28;20202;-84
2022/04/06 03:32:15;;;;;;;4.70;4.07;;;7.00;99.90;;;;;;5037595;28;20178;-84
2022/04/06 03:34:40;;;;;;;7.10;4.53;;;7.00;99.90;;;;;;5037150;28;20594;-84
2022/04/06 03:37:06;;;;;;;5.40;4.40;;;7.00;99.90;;;;;;5037061;28;20186;-84
2022/04/06 03:39:33;;;;;;;5.23;4.17;;;7.00;99.90;;;;;;5037345;28;20233;-84
2022/04/06 03:41:59;;;;;;;6.33;4.80;;;7.10;99.90;;;;;;5035561;28;20193;-83
2022/04/06 03:44:24;;;;;;;7.40;4.70;;;7.20;99.90;;;;;;5036428;28;20170;-84
2022/04/06 03:46:50;;;;;;;5.63;3.77;;;7.20;99.90;;;;;;5036334;28;20253;-84
2022/04/06 03:49:16;;;;;;;6.53;4.27;;;7.20;99.90;;;;;;5037288;28;20202;-84
2022/04/06 03:51:43;;;;;;;5.83;4.50;;;7.20;99.90;;;;;;5039386;28;20228;-85
2022/04/06 03:54:08;;;;;;;5.53;4.30;;;7.20;99.90;;;;;;5039185;28;20182;-85
2022/04/06 03:56:34;;;;;;;6.13;4.57;;;7.20;99.90;;;;;;5038834;28;20214;-84
2022/04/06 03:59:00;;;;;;;6.23;4.50;;;7.20;99.90;;;;;;5039161;28;20211;-84
2022/04/06 04:01:26;;;;;;;7.80;6.30;;;7.30;99.90;;;;;;5039398;28;20186;-84
2022/04/06 04:03:51;;;;;;;6.17;4.80;;;7.30;99.90;;;;;;5038921;28;20178;-84
2022/04/06 04:06:17;;;;;;;5.47;4.57;;;7.30;99.90;;;;;;5040675;28;20178;-84
2022/04/06 04:08:42;;;;;;;7.13;5.37;;;7.30;99.90;;;;;;5039588;28;20202;-84
2022/04/06 04:11:08;;;;;;;6.47;4.97;;;7.30;99.90;;;;;;5040406;28;20175;-84
2022/04/06 04:13:34;;;;;;;5.63;4.43;;;7.20;99.90;;;;;;5038822;28;20185;-84
2022/04/06 04:16:00;;;;;;;6.47;4.43;;;7.30;99.90;;;;;;5039394;28;20189;-84
2022/04/06 04:18:25;;;;;;;4.80;4.23;;;7.30;99.90;;;;;;5038912;28;20648;-84
2022/04/06 04:21:32;;;;;;;4.67;4.17;;;7.30;99.90;;;;;;5040052;28;20235;-84
2022/04/06 04:23:37;;;;;;;5.43;4.60;;;7.40;99.90;;;;;;5040016;28;20651;-84
2022/04/06 04:26:02;;;;;;;5.90;4.43;;;7.40;99.90;;;;;;5040262;28;20260;-84
2022/04/06 04:28:28;;;;;;;5.50;4.00;;;7.40;99.90;;;;;;5038161;28;20656;-84
2022/04/06 04:30:53;;;;;;;7.90;4.10;;;7.50;99.90;;;;;;5039031;28;20182;-84
2022/04/06 04:33:19;;;;;;;6.50;4.60;;;7.50;99.90;;;;;;5038141;28;20241;-83
2022/04/06 04:35:45;;;;;;;6.43;5.63;;;7.50;99.90;;;;;;5038565;28;20265;-84
2022/04/06 04:38:11;;;;;;;8.63;4.43;;;7.50;99.90;;;;;;5038949;28;20683;-83
2022/04/06 04:40:37;;;;;;;5.77;4.00;;;7.50;99.90;;;;;;5038622;28;20203;-83
2022/04/06 04:43:03;;;;;;;4.07;3.43;;;7.50;99.90;;;;;;5040690;28;20186;-84
2022/04/06 04:45:29;;;;;;;6.03;3.77;;;7.50;99.90;;;;;;5039561;28;20228;-84
2022/04/06 04:47:54;;;;;;;6.93;3.90;;;7.50;99.90;;;;;;5039213;28;20189;-80
2022/04/06 04:50:20;;;;;;;5.83;4.17;;;7.50;99.90;;;;;;5039957;28;20189;-83
2022/04/06 04:52:46;;;;;;;5.27;3.53;;;7.50;99.90;;;;;;5040631;28;20263;-83
2022/04/06 04:55:12;;;;;;;4.90;3.67;;;7.50;99.90;;;;;;5040205;28;20187;-83
2022/04/06 04:57:38;;;;;;;4.00;3.40;;;7.50;99.90;;;;;;5047732;28;20206;-82
2022/04/06 05:00:09;;;;;;;4.73;3.90;;;7.50;99.90;;;;;;5052378;28;20276;-83
2022/04/06 05:02:36;;;;;;;3.53;3.23;;;7.50;99.90;;;;;;5052333;28;20197;-83
2022/04/06 05:05:05;;;;;;;4.00;3.50;;;7.60;99.90;;;;;;5041048;28;20217;-84
2022/04/06 05:07:31;;;;;;;3.97;3.50;;;7.50;99.90;;;;;;5036703;28;20182;-84
2022/04/06 05:09:57;;;;;;;4.53;3.63;;;7.60;99.90;;;;;;5038339;28;20558;-83
2022/04/06 05:12:24;;;;;;;3.83;3.43;;;7.60;99.90;;;;;;5037756;28;20185;-84
2022/04/06 05:14:50;;;;;;;5.00;3.77;;;7.60;99.90;;;;;;5036379;28;20215;-84
2022/04/06 05:17:17;;;;;;;5.90;3.53;;;7.60;99.90;;;;;;5037525;28;20417;-84
2022/04/06 05:19:42;;;;;;;7.20;5.33;;;7.60;99.90;;;;;;5036379;28;20653;-84
2022/04/06 05:22:08;;;;;;;4.50;3.50;;;7.60;99.90;;;;;;5037641;28;20206;-83
2022/04/06 05:24:34;;;;;;;5.67;4.10;;;7.60;99.90;;;;;;5035860;28;20182;-83
2022/04/06 05:27:02;;;;;;;4.30;3.90;;;7.60;99.90;;;;;;5037361;28;20181;-84
2022/04/06 05:29:28;;;;;;;4.47;4.07;;;7.60;99.90;;;;;;5037226;28;20198;-83
2022/04/06 05:31:54;;;;;;;4.63;4.10;;;7.60;99.90;;;;;;5040310;28;20210;-85
2022/04/06 05:34:19;;;;;;;4.17;3.57;;;7.70;99.90;;;;;;5038976;28;20809;-86
2022/04/06 05:36:45;;;;;;;5.93;4.17;;;7.70;99.90;;;;;;5039150;28;20198;-83
2022/04/06 05:39:11;;;;;;;4.30;3.90;;;7.70;99.90;;;;;;5039351;28;20206;-83
2022/04/06 05:41:37;;;;;;;5.03;4.53;;;7.70;99.90;;;;;;5039853;28;20182;-84
2022/04/06 05:44:03;;;;;;;5.53;3.63;;;7.80;99.90;;;;;;5041118;28;20170;-84
2022/04/06 05:46:29;;;;;;;4.20;3.80;;;7.80;99.90;;;;;;5041296;28;20225;-84
2022/04/06 05:48:55;;;;;;;5.40;4.10;;;7.80;99.90;;;;;;5040467;28;20200;-83
2022/04/06 05:51:22;;;;;;;4.27;3.67;;;7.80;99.90;;;;;;5038954;28;20183;-82
2022/04/06 05:53:47;;;;;;;5.30;4.30;;;7.80;99.90;;;;;;5037950;28;20633;-84
2022/04/06 05:56:13;;;;;;;4.87;4.37;;;7.80;99.90;;;;;;5039435;28;20178;-84
2022/04/06 05:58:40;;;;;;;7.07;4.93;;;7.90;99.90;;;;;;5040459;28;20198;-84
2022/04/06 06:01:06;;;;;;;6.33;5.03;;;7.90;99.90;;;;;;5038708;28;20180;-86
2022/04/06 06:03:32;;;;;;;4.97;4.43;;;7.90;99.90;;;;;;5039165;28;20166;-85
2022/04/06 06:05:58;;;;;;;6.10;5.13;;;8.00;99.90;;;;;;5038286;28;20232;-85
2022/04/06 06:08:23;;;;;;;5.20;4.13;;;8.00;99.90;;;;;;5038048;28;20297;-86
2022/04/06 06:10:51;;;;;;;7.07;4.60;;;8.00;99.90;;;;;;5038244;28;20178;-85
2022/04/06 06:13:17;;;;;;;6.17;4.33;;;8.10;99.90;;;;;;5039689;28;20182;-86
2022/04/06 06:15:43;;;;;;;5.77;4.70;;;8.20;99.90;;;;;;5039017;28;20319;-87
2022/04/06 06:18:08;;;;;;;7.07;5.13;;;8.30;99.90;;;;;;5038298;28;20353;-86
2022/04/06 06:20:35;;;;;;;6.90;6.20;;;8.30;99.90;;;;;;5038110;28;20213;-86
2022/04/06 06:23:01;;;;;;;6.83;4.00;;;8.30;99.90;;;;;;5040331;28;20543;-85
2022/04/06 06:25:26;;;;;;;7.23;4.30;;;8.40;99.90;;;;;;5037682;28;20170;-85
2022/04/06 06:27:52;;;;;;;7.20;5.27;;;8.50;99.90;;;;;;5038653;28;20166;-85
2022/04/06 06:30:19;;;;;;;5.77;4.87;;;8.50;99.90;;;;;;5037569;28;20185;-85
2022/04/06 06:32:45;;;;;;;6.97;5.70;;;8.70;99.90;;;;;;5038320;28;20175;-85
2022/04/06 06:35:12;;;;;;;5.57;4.30;;;8.70;99.90;;;;;;5038490;28;20277;-85
2022/04/06 06:37:46;;;;;;;5.70;4.80;;;8.90;99.90;;;;;;5039051;28;20187;-85
2022/04/06 06:40:12;;;;;;;5.50;4.87;;;8.80;99.90;;;;;;5038250;28;20193;-85
2022/04/06 06:42:40;;;;;;;8.00;5.83;;;8.90;99.90;;;;;;5040146;28;20208;-85
2022/04/06 06:45:06;;;;;;;5.47;4.50;;;9.00;99.90;;;;;;5039593;28;20166;-85
2022/04/06 06:47:31;;;;;;;5.17;4.47;;;9.00;99.90;;;;;;5038487;28;20178;-85
2022/04/06 06:49:57;;;;;;;5.53;4.30;;;9.10;99.90;;;;;;5045140;28;20220;-84
2022/04/06 06:52:22;;;;;;;7.33;5.30;;;9.10;99.90;;;;;;5053093;28;20192;-84
2022/04/06 06:54:48;;;;;;;5.37;4.20;;;9.10;99.90;;;;;;5053033;28;20246;-83
2022/04/06 06:57:14;;;;;;;8.53;4.90;;;9.30;99.90;;;;;;5041908;28;20278;-83
2022/04/06 06:59:41;;;;;;;15.60;8.57;;;9.40;99.90;;;;;;5037391;28;20263;-83
2022/04/06 07:02:08;;;;;;;6.20;4.83;;;9.50;99.90;;;;;;5036682;28;20181;-82
2022/04/06 07:04:33;;;;;;;5.70;3.80;;;9.70;99.90;;;;;;5037440;28;20209;-83
2022/04/06 07:06:59;;;;;;;5.57;3.60;;;9.90;99.90;;;;;;5036003;28;20174;-83
2022/04/06 07:09:25;;;;;;;4.83;4.10;;;9.90;99.90;;;;;;5036772;28;20205;-83
2022/04/06 07:11:52;;;;;;;4.30;3.67;;;9.90;99.90;;;;;;5038071;28;20190;-83
2022/04/06 07:14:18;;;;;;;4.07;3.67;;;10.00;99.90;;;;;;5037428;28;20174;-83
2022/04/06 07:16:44;;;;;;;4.87;3.90;;;10.00;99.90;;;;;;5036051;28;20189;-83
2022/04/06 07:19:10;;;;;;;8.90;6.30;;;10.10;99.90;;;;;;5037606;28;20699;-83
2022/04/06 07:21:35;;;;;;;17.60;9.07;;;10.20;99.90;;;;;;5036345;28;20580;-83
2022/04/06 07:24:03;;;;;;;30.20;15.27;;;10.30;99.90;;;;;;5037984;28;20260;-83
2022/04/06 07:26:29;;;;;;;21.27;10.93;;;10.50;99.90;;;;;;5040540;28;20224;-83
2022/04/06 07:28:55;;;;;;;28.43;14.73;;;10.80;99.90;;;;;;5039923;28;20240;-83
2022/04/06 07:31:21;;;;;;;14.73;7.77;;;11.30;99.90;;;;;;5039911;28;20186;-83
2022/04/06 07:33:46;;;;;;;20.00;11.20;;;11.60;99.90;;;;;;5040198;28;20548;-85
2022/04/06 07:36:13;;;;;;;11.83;7.37;;;12.00;99.90;;;;;;5041101;28;20632;-83
2022/04/06 07:38:39;;;;;;;6.43;4.40;;;12.30;99.90;;;;;;5040896;28;20671;-84
2022/04/06 07:41:05;;;;;;;12.37;7.33;;;12.50;99.90;;;;;;5041838;28;20307;-83
2022/04/06 07:43:31;;;;;;;9.90;6.33;;;12.70;99.90;;;;;;5040309;28;20186;-84
2022/04/06 07:45:56;;;;;;;4.73;3.87;;;12.70;99.90;;;;;;5041904;28;20177;-84
2022/04/06 07:48:25;;;;;;;22.67;12.03;;;12.70;99.90;;;;;;5043767;28;20194;-84
2022/04/06 07:50:51;;;;;;;4.63;3.67;;;13.00;99.90;;;;;;5041371;28;20717;-84
2022/04/06 07:53:17;;;;;;;3.83;3.20;;;13.20;99.90;;;;;;5040818;28;20217;-84
2022/04/06 07:55:44;;;;;;;3.33;2.80;;;13.50;99.90;;;;;;5039694;28;20197;-84
2022/04/06 07:58:10;;;;;;;5.90;2.93;;;14.10;99.90;;;;;;5039901;28;20198;-84
2022/04/06 08:00:36;;;;;;;4.47;3.00;;;14.70;99.90;;;;;;5039787;28;20206;-84
2022/04/06 08:03:01;;;;;;;3.40;3.07;;;15.00;99.90;;;;;;5039220;28;20177;-84
2022/04/06 08:05:27;;;;;;;3.33;2.73;;;14.90;99.90;;;;;;5040697;28;20166;-84
2022/04/06 08:07:54;;;;;;;3.83;2.47;;;15.10;99.90;;;;;;5039035;28;20552;-84
2022/04/06 08:10:21;;;;;;;3.13;2.73;;;15.20;99.90;;;;;;5041284;28;20202;-85
2022/04/06 08:12:48;;;;;;;2.90;2.57;;;15.30;99.90;;;;;;5040644;28;20205;-85
2022/04/06 08:15:15;;;;;;;2.83;2.50;;;15.70;99.90;;;;;;5041493;28;20182;-84
2022/04/06 08:17:46;;;;;;;2.73;2.30;;;15.90;99.90;;;;;;5041302;28;20316;-85
2022/04/06 08:20:13;;;;;;;3.70;2.50;;;15.80;99.90;;;;;;5039988;28;20190;-85
2022/04/06 08:22:41;;;;;;;3.23;2.27;;;16.00;99.90;;;;;;5039435;28;20269;-84
2022/04/06 08:25:07;;;;;;;2.13;1.93;;;16.40;99.90;;;;;;5039855;28;20170;-85
2022/04/06 08:27:36;;;;;;;4.87;2.87;;;16.40;99.90;;;;;;5041346;28;20194;-85
2022/04/06 08:30:04;;;;;;;2.90;2.57;;;16.50;99.90;;;;;;5040328;28;20194;-85
2022/04/06 08:32:30;;;;;;;2.47;2.00;;;16.50;99.90;;;;;;5039853;28;20178;-84
2022/04/06 08:34:56;;;;;;;2.20;1.90;;;16.80;99.90;;;;;;5038554;28;20269;-84
2022/04/06 08:37:22;;;;;;;3.93;2.57;;;16.40;99.90;;;;;;5040045;28;20619;-84
2022/04/06 08:39:47;;;;;;;2.40;2.20;;;16.40;99.90;;;;;;5038925;28;20683;-84
2022/04/06 08:42:14;;;;;;;2.93;1.97;;;16.00;99.90;;;;;;5038788;28;20563;-85
2022/04/06 08:44:40;;;;;;;2.20;2.00;;;16.00;99.90;;;;;;5039414;28;20182;-86
2022/04/06 08:47:06;;;;;;;2.30;2.10;;;16.20;99.90;;;;;;5048831;28;20185;-83
2022/04/06 08:49:35;;;;;;;2.00;1.90;;;16.20;99.90;;;;;;5054797;28;20194;-83
2022/04/06 08:52:03;;;;;;;3.10;1.97;;;16.30;99.90;;;;;;5051790;28;20244;-85
2022/04/06 08:54:30;;;;;;;3.10;1.90;;;16.40;99.90;;;;;;5040222;28;20665;-83
2022/04/06 08:56:55;;;;;;;2.37;2.17;;;16.40;99.90;;;;;;5041395;28;20182;-85
2022/04/06 08:59:22;;;;;;;4.70;2.57;;;16.30;99.90;;;;;;5039156;28;20205;-84
2022/04/06 09:01:48;;;;;;;3.33;2.23;;;16.20;99.90;;;;;;5038703;28;20555;-85
2022/04/06 09:04:13;;;;;;;2.40;1.97;;;16.30;99.90;;;;;;5039680;28;20180;-85
2022/04/06 09:06:44;;;;;;;2.23;2.03;;;16.20;99.90;;;;;;5040187;28;20703;-85
2022/04/06 09:09:10;;;;;;;2.63;1.80;;;16.10;99.90;;;;;;5040307;28;20221;-85
2022/04/06 09:11:43;;;;;;;2.20;2.00;;;16.20;99.90;;;;;;5038192;28;20192;-85
2022/04/06 09:14:10;;;;;;;2.00;1.80;;;16.50;99.90;;;;;;5038470;28;20206;-85
2022/04/06 09:16:35;;;;;;;2.03;1.90;;;16.50;99.90;;;;;;5040158;28;20177;-85
2022/04/06 09:19:09;;;;;;;2.03;1.83;;;15.80;99.90;;;;;;5038863;28;20202;-84
2022/04/06 09:21:43;;;;;;;2.00;1.80;;;15.50;99.90;;;;;;5038677;28;20180;-85
2022/04/06 09:24:20;;;;;;;2.53;1.70;;;15.10;99.90;;;;;;5039001;28;20165;-85
2022/04/06 09:27:03;;;;;;;3.03;2.03;;;14.90;99.90;;;;;;5040900;28;20196;-85
2022/04/06 09:29:30;;;;;;;2.40;1.70;;;14.50;99.90;;;;;;5041663;28;20201;-85
2022/04/06 09:32:08;;;;;;;2.07;1.60;;;14.60;99.90;;;;;;5051718;28;20188;-85
2022/04/06 09:34:34;;;;;;;1.80;1.70;;;15.00;99.90;;;;;;5046670;28;20170;-81
2022/04/06 09:37:26;;;;;;;1.93;1.50;;;15.30;99.90;;;;;;5038254;28;20192;-84
2022/04/06 09:39:52;;;;;;;1.70;1.60;;;15.10;99.90;;;;;;5036866;28;20212;-85
2022/04/06 09:42:25;;;;;;;1.80;1.70;;;14.80;99.90;;;;;;5037386;28;20515;-85
2022/04/06 09:47:51;;;;;;;3.57;1.67;;;15.30;99.90;;;;;;5039000;28;20587;-85
2022/04/06 09:50:22;;;;;;;1.50;1.40;;;15.70;99.90;;;;;;5037825;28;20227;-85
2022/04/06 09:52:52;;;;;;;2.20;1.70;;;16.20;99.90;;;;;;5037758;28;20180;-82
2022/04/06 09:55:19;;;;;;;2.23;1.97;;;16.60;99.90;;;;;;5039233;28;20182;-83
2022/04/06 09:57:50;;;;;;;2.00;1.60;;;16.40;99.90;;;;;;5036815;28;20175;-82
2022/04/06 10:00:23;;;;;;;3.20;1.60;;;15.70;99.90;;;;;;5037142;28;20667;-82
2022/04/06 10:03:03;;;;;;;1.73;1.63;;;15.40;99.90;;;;;;5038456;28;20155;-82
2022/04/06 10:05:31;;;;;;;1.97;1.63;;;15.60;99.90;;;;;;5037147;28;20174;-85
2022/04/06 10:08:04;;;;;;;2.03;1.53;;;15.30;99.90;;;;;;5036751;28;20180;-85
2022/04/06 10:10:31;;;;;;;1.80;1.70;;;15.50;99.90;;;;;;5038391;28;20157;-85
2022/04/06 10:12:58;;;;;;;1.67;1.57;;;15.70;99.90;;;;;;5039960;28;20177;-83
2022/04/06 10:15:25;;;;;;;2.30;1.50;;;16.00;99.90;;;;;;5036883;28;20185;-84
2022/04/06 10:17:51;;;;;;;1.23;1.13;;;16.10;99.90;;;;;;5037903;28;20185;-81
2022/04/06 10:20:27;;;;;;;1.80;1.10;;;16.30;99.90;;;;;;5036456;28;20227;-83
2022/04/06 10:23:05;;;;;;;1.53;1.30;;;16.30;99.60;;;;;;5036889;28;20220;-81
2022/04/06 10:25:55;;;;;;;1.53;1.10;;;16.50;99.90;;;;;;5036301;28;20227;-83
2022/04/06 10:28:24;;;;;;;1.30;1.20;;;16.60;99.90;;;;;;5036606;28;20226;-82
2022/04/06 10:31:11;;;;;;;1.60;1.13;;;16.80;98.00;;;;;;5038796;28;20654;-83
2022/04/06 10:33:37;;;;;;;2.07;1.30;;;16.80;98.00;;;;;;5037184;28;20239;-82
2022/04/06 10:36:20;;;;;;;1.80;1.30;;;17.10;97.00;;;;;;5036312;28;20271;-82
2022/04/06 10:39:05;;;;;;;1.90;1.27;;;16.50;96.90;;;;;;5036951;28;20605;-83
2022/04/06 10:41:34;;;;;;;1.33;1.20;;;15.80;97.60;;;;;;5038419;28;20183;-83
2022/04/06 10:44:00;;;;;;;4.67;1.70;;;16.10;98.70;;;;;;5042802;28;20185;-82
2022/04/06 10:46:40;;;;;;;1.67;1.10;;;15.70;99.30;;;;;;5053512;28;20206;-85
2022/04/06 10:49:06;;;;;;;1.20;1.10;;;16.00;98.50;;;;;;5052259;28;20336;-82
2022/04/06 10:51:42;;;;;;;2.10;1.10;;;16.40;97.10;;;;;;5042956;28;20214;-85
2022/04/06 10:54:14;;;;;;;1.10;1.07;;;16.70;97.80;;;;;;5038456;28;20174;-83
2022/04/06 10:56:46;;;;;;;1.50;1.10;;;16.80;96.80;;;;;;5037941;28;20542;-84
2022/04/06 10:59:22;;;;;;;1.53;1.30;;;16.40;98.00;;;;;;5037704;28;20738;-83
2022/04/06 11:01:49;;;;;;;1.93;1.33;;;16.90;99.90;;;;;;5038023;28;20573;-83
2022/04/06 11:04:18;;;;;;;1.37;1.27;;;17.70;97.70;;;;;;5052739;28;20168;-82
2022/04/06 11:06:49;;;;;;;1.73;1.30;;;17.80;96.40;;;;;;5057502;28;20182;-83
2022/04/06 11:12:34;;;;;;;1.10;1.00;;;17.90;94.70;;;;;;5026286;28;20196;-83
2022/04/06 11:15:00;;;;;;;1.60;1.13;;;17.60;92.50;;;;;;5035666;28;20273;-82
2022/04/06 11:19:58;;;;;;;2.53;1.00;;;17.90;94.40;;;;;;5036476;28;20290;-83
2022/04/06 11:22:24;;;;;;;4.20;0.90;;;18.10;92.00;;;;;;5035998;28;20186;-84
2022/04/06 11:24:51;;;;;;;1.20;1.10;;;18.70;91.60;;;;;;5035911;28;20182;-81
2022/04/06 11:27:32;;;;;;;1.70;1.43;;;18.60;91.60;;;;;;5037367;28;20632;-81
2022/04/06 11:30:06;;;;;;;1.33;1.13;;;18.70;90.50;;;;;;5036031;28;20209;-82
2022/04/06 11:32:36;;;;;;;1.67;1.10;;;18.80;90.10;;;;;;5035894;28;20189;-82
2022/04/06 11:35:05;;;;;;;1.73;1.17;;;18.10;89.60;;;;;;5038874;28;20178;-83
2022/04/06 11:37:38;;;;;;;1.07;0.97;;;18.10;89.50;;;;;;5056989;28;20277;-83
2022/04/06 11:40:05;;;;;;;1.97;1.40;;;18.10;87.20;;;;;;5052098;28;20206;-81
2022/04/06 11:42:31;;;;;;;1.53;1.00;;;17.60;90.70;;;;;;5052455;28;20179;-81
2022/04/06 11:44:57;;;;;;;1.60;1.03;;;17.80;88.70;;;;;;5042737;28;20179;-81
2022/04/06 11:47:34;;;;;;;2.33;1.00;;;17.50;88.50;;;;;;5046103;28;20279;-82
2022/04/06 11:50:01;;;;;;;1.20;1.10;;;17.60;88.00;;;;;;5035816;28;20240;-86
2022/04/06 11:52:27;;;;;;;2.30;1.10;;;17.40;85.90;;;;;;5034689;28;20182;-82
2022/04/06 11:54:56;;;;;;;1.97;1.50;;;18.10;90.10;;;;;;5035749;28;20182;-83
2022/04/06 11:57:38;;;;;;;1.70;0.93;;;19.00;90.50;;;;;;5035688;28;20184;-84
2022/04/06 12:00:09;;;;;;;1.57;1.40;;;20.30;83.80;;;;;;5035766;28;20762;-83
2022/04/06 12:02:50;;;;;;;1.33;1.23;;;20.50;83.00;;;;;;5036250;28;20183;-83
2022/04/06 12:05:17;;;;;;;2.37;1.30;;;19.90;86.20;;;;;;5036645;28;20641;-84
2022/04/06 12:07:45;;;;;;;1.53;1.20;;;19.80;82.80;;;;;;5037043;28;20592;-84
2022/04/06 12:10:12;;;;;;;1.50;1.40;;;18.80;89.20;;;;;;5039454;28;20203;-83
2022/04/06 12:12:39;;;;;;;1.40;1.30;;;17.80;86.50;;;;;;5044822;28;20186;-82
2022/04/06 12:15:07;;;;;;;1.60;1.30;;;16.60;89.10;;;;;;5055779;28;20174;-83
2022/04/06 12:17:36;;;;;;;2.03;1.43;;;16.00;90.50;;;;;;5048908;28;20166;-83
2022/04/06 12:20:20;;;;;;;1.57;1.40;;;15.70;90.20;;;;;;5040557;28;20197;-84
2022/04/06 12:22:46;;;;;;;1.30;1.20;;;15.60;90.50;;;;;;5040809;28;20229;-83
2022/04/06 12:25:30;;;;;;;1.50;1.23;;;17.20;93.50;;;;;;5040237;28;20279;-83
2022/04/06 12:28:13;;;;;;;1.47;1.30;;;19.10;81.60;;;;;;5040210;28;20181;-84
2022/04/06 12:30:59;;;;;;;2.73;1.43;;;19.10;81.70;;;;;;5042896;28;20527;-84
2022/04/06 12:33:43;;;;;;;2.87;1.33;;;19.70;79.60;;;;;;5043704;28;20174;-84
2022/04/06 12:36:27;;;;;;;1.33;1.23;;;20.80;80.30;;;;;;5042109;28;20233;-84
2022/04/06 12:39:13;;;;;;;1.57;1.37;;;20.90;79.00;;;;;;5019364;28;20217;-84
2022/04/06 12:41:53;;;;;;;1.20;1.10;;;21.50;75.60;;;;;;5031753;28;20220;-83
2022/04/06 12:44:20;;;;;;;1.40;1.10;;;20.90;73.40;;;;;;5038207;28;20648;-83
2022/04/06 12:46:47;;;;;;;1.83;1.67;;;20.60;74.70;;;;;;5039172;28;20201;-82
2022/04/06 12:49:24;;;;;;;1.07;0.97;;;20.60;73.20;;;;;;5042250;28;20226;-84
2022/04/06 12:52:08;;;;;;;2.30;1.00;;;20.30;69.60;;;;;;5040260;28;20170;-83
2022/04/06 12:54:35;;;;;;;1.10;1.00;;;19.00;71.70;;;;;;5039171;28;20170;-82
2022/04/06 12:57:13;;;;;;;1.70;0.97;;;19.30;75.00;;;;;;5039048;28;20178;-82
2022/04/06 13:00:00;;;;;;;1.43;1.20;;;20.20;73.30;;;;;;5039241;28;20198;-83
2022/04/06 13:02:29;;;;;;;2.97;1.00;;;20.60;71.20;;;;;;5038919;28;20508;-83
2022/04/06 13:05:11;;;;;;;0.83;0.83;;;20.60;71.40;;;;;;5039209;28;20257;-84
2022/04/06 13:07:40;;;;;;;1.03;0.90;;;20.40;68.20;;;;;;5041828;28;20201;-85
2022/04/06 13:10:27;;;;;;;1.87;1.20;;;20.80;71.30;;;;;;5039546;28;20210;-85